Historyczne dane pomiarowe

Dodano dane terminowe – wersja testowa.

Dane z okresu 1951-2019

Wersja bazy: 1.34 [2019-03-16, lista zmian], aktualizacja planowana na 2019-04-15

Dane meteo z obszaru Polski uzyskane na podstawie danych udostępnionych przez Instytut Meteorologii i Gospodarki Wodnej – Państwowy Instytut Badawczy.

 

Wybierz Datę:    

       

TemperaturaWilgotnośćZachmurzenieWiatrCiśnienieWidzialnośćZjawiska
 Data    tng td wb rh cc ccl cl cm ch dir g1 g2 mslp ppp      
1994-08-10 00:00:00 13.2--- 12.2 12.693wxwx0wx--1013.4 972.8 0.0---wx
1994-08-10 01:00:00 13.0--- 12.0 12.493wxwx0wx--1013.2 972.5----wx
1994-08-10 02:00:00 12.1--- 11.9 12.099wxwx0wx--1012.8 972.0----wx
1994-08-10 03:00:00 11.8--- 11.6 11.799wxwx0wx--1012.4 971.6----wx
1994-08-10 04:00:00 11.4--- 11.4 11.4100wxwxwx0wx--1012.1 971.3----wxw1
1994-08-10 05:00:00 12.0--- 11.8 11.999wxwxwx1wx--1011.9 971.2----wxw1
1994-08-10 06:00:00 13.1--- 12.9 13.099wxwx0wx--1011.8 971.2 0.0---wx
1994-08-10 07:00:00 16.5--- 15.0 15.691wxwxwx0wx--1011.1 971.0----wx
1994-08-10 08:00:00 21.6--- 15.3 17.667wxwxwxwx0wx--1010.0 970.6----wx
1994-08-10 09:00:00 24.8--- 13.2 17.648wxwxwxwx3wx--1009.4 970.5----wxw1
1994-08-10 10:00:00 25.9--- 12.2 17.542wxwxwxwx2wx--1008.9 970.1----wx
1994-08-10 11:00:00 26.8--- 10.8 17.237wxwxwxwx3wx--1008.4 969.8----wx
1994-08-10 12:00:00 27.3--- 11.8 17.838wxwxwxwx1wx--1008.1 969.5 0.0---wxw1
1994-08-10 13:00:00 27.5--- 12.5 18.239wxwxwxwx1wx--1007.4 968.9----wx
1994-08-10 14:00:00 28.0--- 12.7 18.539wxwxwxwxwx2wx--1006.7 968.3----wx
1994-08-10 15:00:00 28.8--- 12.8 18.837wxwxwxwx1wx--1005.9 967.6----wx
1994-08-10 16:00:00 28.0--- 12.5 18.438wxwxwxwx3wx--1005.6 967.2----wx
1994-08-10 17:00:00 26.2--- 14.2 18.648wxwxwxwx1wx--1005.7 967.1----wx
1994-08-10 18:00:00 25.2--- 14.8 18.653wxwxwxwxwx1wx--1005.6 966.9 0.0---wx
1994-08-10 19:00:00 22.5--- 15.9 18.367wxwxwxwx2wx--1006.1 967.0----wx
1994-08-10 20:00:00 22.1--- 15.7 18.067wxwxwxwx0wx--1006.3 967.1----wx
1994-08-10 21:00:00 20.6--- 15.5 17.473wxwxwxwx1wx--1006.1 966.7----wx
1994-08-10 22:00:00 21.6--- 14.6 17.264wxwxwx2wx--1005.4 966.2----wx
1994-08-10 23:00:00 21.5--- 13.5 16.660wxwxwxwx3wx--1004.7 965.5----wx

 

Źródłem pochodzenia danych jest Instytut Meteorologii i Gospodarki Wodnej – Państwowy Instytut Badawczy. Dane Instytutu Meteorologii i Gospodarki Wodnej – Państwowego Instytutu Badawczego zostały przetworzone.

Dane źródłowe można odnaleźć na stronie https://dane.imgw.pl